sensor_id;sensor_type;location;lat;lon;timestamp;P1;durP1;ratioP1;P2;durP2;ratioP2
79149;SDS011;68563;45.644;13.782;2023-07-30T00:01:12;5.72;;;3.17;;
79149;SDS011;68563;45.644;13.782;2023-07-30T00:03:38;4.47;;;3.35;;
79149;SDS011;68563;45.644;13.782;2023-07-30T00:06:03;6.22;;;3.40;;
79149;SDS011;68563;45.644;13.782;2023-07-30T00:08:28;6.68;;;2.97;;
79149;SDS011;68563;45.644;13.782;2023-07-30T00:10:56;6.07;;;3.33;;
79149;SDS011;68563;45.644;13.782;2023-07-30T00:13:22;4.72;;;3.50;;
79149;SDS011;68563;45.644;13.782;2023-07-30T00:15:48;4.65;;;3.30;;
79149;SDS011;68563;45.644;13.782;2023-07-30T00:18:13;5.20;;;3.25;;
79149;SDS011;68563;45.644;13.782;2023-07-30T00:20:39;5.68;;;3.53;;
79149;SDS011;68563;45.644;13.782;2023-07-30T00:23:05;7.63;;;3.00;;
79149;SDS011;68563;45.644;13.782;2023-07-30T00:25:30;5.07;;;3.45;;
79149;SDS011;68563;45.644;13.782;2023-07-30T00:27:55;6.85;;;3.10;;
79149;SDS011;68563;45.644;13.782;2023-07-30T00:30:21;6.10;;;2.92;;
79149;SDS011;68563;45.644;13.782;2023-07-30T00:32:46;8.52;;;3.85;;
79149;SDS011;68563;45.644;13.782;2023-07-30T00:35:12;4.60;;;2.90;;
79149;SDS011;68563;45.644;13.782;2023-07-30T00:37:37;6.78;;;3.60;;
79149;SDS011;68563;45.644;13.782;2023-07-30T00:40:03;5.03;;;3.15;;
79149;SDS011;68563;45.644;13.782;2023-07-30T00:42:30;5.07;;;3.10;;
79149;SDS011;68563;45.644;13.782;2023-07-30T00:44:55;7.72;;;3.75;;
79149;SDS011;68563;45.644;13.782;2023-07-30T00:47:21;7.03;;;3.63;;
79149;SDS011;68563;45.644;13.782;2023-07-30T00:49:47;7.25;;;3.10;;
79149;SDS011;68563;45.644;13.782;2023-07-30T00:52:13;6.50;;;3.30;;
79149;SDS011;68563;45.644;13.782;2023-07-30T00:54:41;4.88;;;3.20;;
79149;SDS011;68563;45.644;13.782;2023-07-30T00:57:06;6.78;;;3.22;;
79149;SDS011;68563;45.644;13.782;2023-07-30T00:59:32;5.13;;;3.03;;
79149;SDS011;68563;45.644;13.782;2023-07-30T01:01:58;5.43;;;3.13;;
79149;SDS011;68563;45.644;13.782;2023-07-30T01:04:24;5.38;;;2.88;;
79149;SDS011;68563;45.644;13.782;2023-07-30T01:06:50;5.32;;;3.08;;
79149;SDS011;68563;45.644;13.782;2023-07-30T01:09:15;4.00;;;3.05;;
79149;SDS011;68563;45.644;13.782;2023-07-30T01:11:41;4.65;;;2.67;;
79149;SDS011;68563;45.644;13.782;2023-07-30T01:14:08;7.85;;;3.20;;
79149;SDS011;68563;45.644;13.782;2023-07-30T01:16:35;6.20;;;3.00;;
79149;SDS011;68563;45.644;13.782;2023-07-30T01:19:00;4.53;;;3.13;;
79149;SDS011;68563;45.644;13.782;2023-07-30T01:21:30;7.07;;;3.20;;
79149;SDS011;68563;45.644;13.782;2023-07-30T01:23:59;3.88;;;2.80;;
79149;SDS011;68563;45.644;13.782;2023-07-30T01:26:27;5.47;;;3.00;;
79149;SDS011;68563;45.644;13.782;2023-07-30T01:28:58;5.07;;;3.00;;
79149;SDS011;68563;45.644;13.782;2023-07-30T01:31:26;5.70;;;3.15;;
79149;SDS011;68563;45.644;13.782;2023-07-30T01:33:55;7.03;;;3.38;;
79149;SDS011;68563;45.644;13.782;2023-07-30T01:36:21;5.72;;;3.20;;
79149;SDS011;68563;45.644;13.782;2023-07-30T01:38:47;4.72;;;2.97;;
79149;SDS011;68563;45.644;13.782;2023-07-30T01:41:15;6.22;;;2.90;;
79149;SDS011;68563;45.644;13.782;2023-07-30T01:43:40;5.68;;;3.00;;
79149;SDS011;68563;45.644;13.782;2023-07-30T01:46:06;5.80;;;3.00;;
79149;SDS011;68563;45.644;13.782;2023-07-30T01:48:31;7.60;;;3.67;;
79149;SDS011;68563;45.644;13.782;2023-07-30T01:50:57;4.30;;;3.03;;
79149;SDS011;68563;45.644;13.782;2023-07-30T01:53:22;4.88;;;3.03;;
79149;SDS011;68563;45.644;13.782;2023-07-30T01:55:47;5.05;;;3.00;;
79149;SDS011;68563;45.644;13.782;2023-07-30T01:58:13;7.15;;;3.17;;
79149;SDS011;68563;45.644;13.782;2023-07-30T02:00:39;6.28;;;3.25;;
79149;SDS011;68563;45.644;13.782;2023-07-30T02:03:04;3.63;;;2.80;;
79149;SDS011;68563;45.644;13.782;2023-07-30T02:05:30;3.85;;;3.05;;
79149;SDS011;68563;45.644;13.782;2023-07-30T02:07:56;8.27;;;3.00;;
79149;SDS011;68563;45.644;13.782;2023-07-30T02:10:23;6.18;;;3.10;;
79149;SDS011;68563;45.644;13.782;2023-07-30T02:12:49;4.38;;;3.03;;
79149;SDS011;68563;45.644;13.782;2023-07-30T02:15:15;8.43;;;2.92;;
79149;SDS011;68563;45.644;13.782;2023-07-30T02:17:40;4.85;;;2.75;;
79149;SDS011;68563;45.644;13.782;2023-07-30T02:20:06;5.30;;;3.10;;
79149;SDS011;68563;45.644;13.782;2023-07-30T02:22:31;5.68;;;3.10;;
79149;SDS011;68563;45.644;13.782;2023-07-30T02:24:57;6.72;;;2.95;;
79149;SDS011;68563;45.644;13.782;2023-07-30T02:27:22;5.72;;;2.85;;
79149;SDS011;68563;45.644;13.782;2023-07-30T02:29:48;5.03;;;2.63;;
79149;SDS011;68563;45.644;13.782;2023-07-30T02:32:13;4.82;;;2.80;;
79149;SDS011;68563;45.644;13.782;2023-07-30T02:34:39;3.95;;;3.03;;
79149;SDS011;68563;45.644;13.782;2023-07-30T02:37:04;5.13;;;3.00;;
79149;SDS011;68563;45.644;13.782;2023-07-30T02:39:30;6.13;;;3.30;;
79149;SDS011;68563;45.644;13.782;2023-07-30T02:41:55;4.85;;;3.03;;
79149;SDS011;68563;45.644;13.782;2023-07-30T02:44:20;3.83;;;2.70;;
79149;SDS011;68563;45.644;13.782;2023-07-30T02:46:46;5.32;;;3.10;;
79149;SDS011;68563;45.644;13.782;2023-07-30T02:49:11;4.35;;;2.75;;
79149;SDS011;68563;45.644;13.782;2023-07-30T02:51:36;3.70;;;2.97;;
79149;SDS011;68563;45.644;13.782;2023-07-30T02:54:05;4.18;;;3.10;;
79149;SDS011;68563;45.644;13.782;2023-07-30T02:56:32;5.65;;;2.90;;
79149;SDS011;68563;45.644;13.782;2023-07-30T02:58:58;3.38;;;2.33;;
79149;SDS011;68563;45.644;13.782;2023-07-30T03:01:24;7.53;;;1.98;;
79149;SDS011;68563;45.644;13.782;2023-07-30T03:03:50;3.38;;;1.27;;
79149;SDS011;68563;45.644;13.782;2023-07-30T03:06:15;4.97;;;1.50;;
79149;SDS011;68563;45.644;13.782;2023-07-30T03:08:42;3.65;;;1.05;;
79149;SDS011;68563;45.644;13.782;2023-07-30T03:11:08;2.58;;;0.85;;
79149;SDS011;68563;45.644;13.782;2023-07-30T03:13:34;2.03;;;0.63;;
79149;SDS011;68563;45.644;13.782;2023-07-30T03:15:59;2.50;;;0.90;;
79149;SDS011;68563;45.644;13.782;2023-07-30T03:18:24;1.95;;;0.77;;
79149;SDS011;68563;45.644;13.782;2023-07-30T03:20:50;1.70;;;0.65;;
79149;SDS011;68563;45.644;13.782;2023-07-30T03:23:16;1.50;;;0.45;;
79149;SDS011;68563;45.644;13.782;2023-07-30T03:25:41;2.03;;;0.50;;
79149;SDS011;68563;45.644;13.782;2023-07-30T03:28:06;2.80;;;1.02;;
79149;SDS011;68563;45.644;13.782;2023-07-30T03:30:32;1.38;;;0.73;;
79149;SDS011;68563;45.644;13.782;2023-07-30T03:32:57;1.20;;;0.60;;
79149;SDS011;68563;45.644;13.782;2023-07-30T03:35:22;1.20;;;0.52;;
79149;SDS011;68563;45.644;13.782;2023-07-30T03:37:48;2.00;;;0.60;;
79149;SDS011;68563;45.644;13.782;2023-07-30T03:40:13;2.67;;;0.82;;
79149;SDS011;68563;45.644;13.782;2023-07-30T03:42:39;1.38;;;0.50;;
79149;SDS011;68563;45.644;13.782;2023-07-30T03:45:04;1.23;;;0.50;;
79149;SDS011;68563;45.644;13.782;2023-07-30T03:47:30;1.33;;;0.50;;
79149;SDS011;68563;45.644;13.782;2023-07-30T03:49:55;2.00;;;0.50;;
79149;SDS011;68563;45.644;13.782;2023-07-30T03:52:21;3.42;;;0.50;;
79149;SDS011;68563;45.644;13.782;2023-07-30T03:54:46;1.38;;;0.43;;
79149;SDS011;68563;45.644;13.782;2023-07-30T03:57:12;1.20;;;0.52;;
79149;SDS011;68563;45.644;13.782;2023-07-30T03:59:37;0.80;;;0.45;;
79149;SDS011;68563;45.644;13.782;2023-07-30T04:02:02;0.95;;;0.43;;
79149;SDS011;68563;45.644;13.782;2023-07-30T04:04:29;0.63;;;0.40;;
79149;SDS011;68563;45.644;13.782;2023-07-30T04:06:54;4.97;;;0.45;;
79149;SDS011;68563;45.644;13.782;2023-07-30T04:09:20;1.70;;;0.57;;
79149;SDS011;68563;45.644;13.782;2023-07-30T04:11:45;1.95;;;0.70;;
79149;SDS011;68563;45.644;13.782;2023-07-30T04:14:11;0.95;;;0.40;;
79149;SDS011;68563;45.644;13.782;2023-07-30T04:16:36;1.25;;;0.52;;
79149;SDS011;68563;45.644;13.782;2023-07-30T04:19:01;1.00;;;0.63;;
79149;SDS011;68563;45.644;13.782;2023-07-30T04:21:27;0.45;;;0.40;;
79149;SDS011;68563;45.644;13.782;2023-07-30T04:23:52;0.82;;;0.52;;
79149;SDS011;68563;45.644;13.782;2023-07-30T04:26:17;0.70;;;0.40;;
79149;SDS011;68563;45.644;13.782;2023-07-30T04:28:43;0.85;;;0.50;;
79149;SDS011;68563;45.644;13.782;2023-07-30T04:31:08;0.77;;;0.52;;
79149;SDS011;68563;45.644;13.782;2023-07-30T04:33:34;1.15;;;0.70;;
79149;SDS011;68563;45.644;13.782;2023-07-30T04:35:59;1.33;;;0.50;;
79149;SDS011;68563;45.644;13.782;2023-07-30T04:38:24;0.80;;;0.50;;
79149;SDS011;68563;45.644;13.782;2023-07-30T04:40:50;1.15;;;0.52;;
79149;SDS011;68563;45.644;13.782;2023-07-30T04:43:15;1.42;;;0.40;;
79149;SDS011;68563;45.644;13.782;2023-07-30T04:45:41;1.48;;;0.75;;
79149;SDS011;68563;45.644;13.782;2023-07-30T04:48:07;1.20;;;0.50;;
79149;SDS011;68563;45.644;13.782;2023-07-30T04:50:32;0.60;;;0.50;;
79149;SDS011;68563;45.644;13.782;2023-07-30T04:52:58;0.30;;;0.30;;
79149;SDS011;68563;45.644;13.782;2023-07-30T04:55:23;2.05;;;0.50;;
79149;SDS011;68563;45.644;13.782;2023-07-30T04:57:49;0.45;;;0.38;;
79149;SDS011;68563;45.644;13.782;2023-07-30T05:00:14;0.82;;;0.52;;
79149;SDS011;68563;45.644;13.782;2023-07-30T05:02:40;0.30;;;0.30;;
79149;SDS011;68563;45.644;13.782;2023-07-30T05:05:06;1.05;;;0.40;;
79149;SDS011;68563;45.644;13.782;2023-07-30T05:07:31;0.93;;;0.45;;
79149;SDS011;68563;45.644;13.782;2023-07-30T05:09:56;1.50;;;0.40;;
79149;SDS011;68563;45.644;13.782;2023-07-30T05:12:22;1.45;;;0.30;;
79149;SDS011;68563;45.644;13.782;2023-07-30T05:14:47;0.55;;;0.38;;
79149;SDS011;68563;45.644;13.782;2023-07-30T05:17:13;0.82;;;0.30;;
79149;SDS011;68563;45.644;13.782;2023-07-30T05:19:38;0.40;;;0.40;;
79149;SDS011;68563;45.644;13.782;2023-07-30T05:22:04;0.38;;;0.30;;
79149;SDS011;68563;45.644;13.782;2023-07-30T05:24:30;0.43;;;0.30;;
79149;SDS011;68563;45.644;13.782;2023-07-30T05:26:56;0.60;;;0.50;;
79149;SDS011;68563;45.644;13.782;2023-07-30T05:29:21;0.70;;;0.50;;
79149;SDS011;68563;45.644;13.782;2023-07-30T05:31:47;0.55;;;0.40;;
79149;SDS011;68563;45.644;13.782;2023-07-30T05:34:12;0.63;;;0.40;;
79149;SDS011;68563;45.644;13.782;2023-07-30T05:36:37;0.55;;;0.43;;
79149;SDS011;68563;45.644;13.782;2023-07-30T05:39:03;1.55;;;0.52;;
79149;SDS011;68563;45.644;13.782;2023-07-30T05:41:28;1.75;;;0.60;;
79149;SDS011;68563;45.644;13.782;2023-07-30T05:43:53;0.75;;;0.60;;
79149;SDS011;68563;45.644;13.782;2023-07-30T05:46:19;1.20;;;0.70;;
79149;SDS011;68563;45.644;13.782;2023-07-30T05:48:44;0.90;;;0.60;;
79149;SDS011;68563;45.644;13.782;2023-07-30T05:51:10;0.70;;;0.52;;
79149;SDS011;68563;45.644;13.782;2023-07-30T05:53:35;0.50;;;0.50;;
79149;SDS011;68563;45.644;13.782;2023-07-30T05:56:00;1.65;;;0.40;;
79149;SDS011;68563;45.644;13.782;2023-07-30T05:58:26;0.45;;;0.43;;
79149;SDS011;68563;45.644;13.782;2023-07-30T06:00:51;0.50;;;0.50;;
79149;SDS011;68563;45.644;13.782;2023-07-30T06:03:17;0.73;;;0.47;;
79149;SDS011;68563;45.644;13.782;2023-07-30T06:05:42;0.65;;;0.40;;
79149;SDS011;68563;45.644;13.782;2023-07-30T06:08:08;1.08;;;0.50;;
79149;SDS011;68563;45.644;13.782;2023-07-30T06:10:34;0.68;;;0.50;;
79149;SDS011;68563;45.644;13.782;2023-07-30T06:13:01;0.40;;;0.40;;
79149;SDS011;68563;45.644;13.782;2023-07-30T06:15:27;0.60;;;0.60;;
79149;SDS011;68563;45.644;13.782;2023-07-30T06:17:52;1.77;;;0.50;;
79149;SDS011;68563;45.644;13.782;2023-07-30T06:20:17;1.75;;;0.52;;
79149;SDS011;68563;45.644;13.782;2023-07-30T06:22:43;0.50;;;0.50;;
79149;SDS011;68563;45.644;13.782;2023-07-30T06:25:08;2.05;;;0.60;;
79149;SDS011;68563;45.644;13.782;2023-07-30T06:27:34;1.23;;;1.08;;
79149;SDS011;68563;45.644;13.782;2023-07-30T06:29:59;0.82;;;0.52;;
79149;SDS011;68563;45.644;13.782;2023-07-30T06:32:24;1.20;;;0.65;;
79149;SDS011;68563;45.644;13.782;2023-07-30T06:34:50;0.73;;;0.60;;
79149;SDS011;68563;45.644;13.782;2023-07-30T06:37:15;0.93;;;0.65;;
79149;SDS011;68563;45.644;13.782;2023-07-30T06:39:40;0.85;;;0.50;;
79149;SDS011;68563;45.644;13.782;2023-07-30T06:42:06;0.40;;;0.40;;
79149;SDS011;68563;45.644;13.782;2023-07-30T06:44:31;1.20;;;0.70;;
79149;SDS011;68563;45.644;13.782;2023-07-30T06:46:57;3.80;;;0.65;;
79149;SDS011;68563;45.644;13.782;2023-07-30T06:49:22;0.70;;;0.50;;
79149;SDS011;68563;45.644;13.782;2023-07-30T06:51:48;0.75;;;0.60;;
79149;SDS011;68563;45.644;13.782;2023-07-30T06:54:13;0.73;;;0.52;;
79149;SDS011;68563;45.644;13.782;2023-07-30T06:56:39;0.70;;;0.60;;
79149;SDS011;68563;45.644;13.782;2023-07-30T06:59:04;0.93;;;0.60;;
79149;SDS011;68563;45.644;13.782;2023-07-30T07:01:29;0.80;;;0.52;;
79149;SDS011;68563;45.644;13.782;2023-07-30T07:03:55;0.50;;;0.50;;
79149;SDS011;68563;45.644;13.782;2023-07-30T07:06:20;0.82;;;0.70;;
79149;SDS011;68563;45.644;13.782;2023-07-30T07:08:46;0.52;;;0.52;;
79149;SDS011;68563;45.644;13.782;2023-07-30T07:11:11;1.20;;;0.80;;
79149;SDS011;68563;45.644;13.782;2023-07-30T07:13:36;1.42;;;1.20;;
79149;SDS011;68563;45.644;13.782;2023-07-30T07:16:02;1.80;;;0.60;;
79149;SDS011;68563;45.644;13.782;2023-07-30T07:18:28;0.57;;;0.50;;
79149;SDS011;68563;45.644;13.782;2023-07-30T07:20:54;0.65;;;0.55;;
79149;SDS011;68563;45.644;13.782;2023-07-30T07:23:19;0.80;;;0.50;;
79149;SDS011;68563;45.644;13.782;2023-07-30T07:25:45;0.57;;;0.55;;
79149;SDS011;68563;45.644;13.782;2023-07-30T07:28:10;1.23;;;0.52;;
79149;SDS011;68563;45.644;13.782;2023-07-30T07:30:35;2.08;;;0.50;;
79149;SDS011;68563;45.644;13.782;2023-07-30T07:33:04;1.27;;;0.90;;
79149;SDS011;68563;45.644;13.782;2023-07-30T07:35:31;0.80;;;0.70;;
79149;SDS011;68563;45.644;13.782;2023-07-30T07:37:56;1.15;;;0.55;;
79149;SDS011;68563;45.644;13.782;2023-07-30T07:40:22;2.92;;;0.60;;
79149;SDS011;68563;45.644;13.782;2023-07-30T07:42:47;1.25;;;0.77;;
79149;SDS011;68563;45.644;13.782;2023-07-30T07:45:13;0.98;;;0.70;;
79149;SDS011;68563;45.644;13.782;2023-07-30T07:47:39;2.25;;;0.82;;
79149;SDS011;68563;45.644;13.782;2023-07-30T07:50:05;1.10;;;0.70;;
79149;SDS011;68563;45.644;13.782;2023-07-30T07:52:31;1.13;;;0.90;;
79149;SDS011;68563;45.644;13.782;2023-07-30T07:54:58;1.13;;;0.68;;
79149;SDS011;68563;45.644;13.782;2023-07-30T07:57:34;2.83;;;0.85;;
79149;SDS011;68563;45.644;13.782;2023-07-30T08:00:09;1.95;;;0.75;;
79149;SDS011;68563;45.644;13.782;2023-07-30T08:02:35;1.50;;;0.70;;
79149;SDS011;68563;45.644;13.782;2023-07-30T08:05:01;0.70;;;0.70;;
79149;SDS011;68563;45.644;13.782;2023-07-30T08:07:28;1.05;;;0.70;;
79149;SDS011;68563;45.644;13.782;2023-07-30T08:09:53;1.08;;;0.80;;
79149;SDS011;68563;45.644;13.782;2023-07-30T08:12:19;0.50;;;0.50;;
79149;SDS011;68563;45.644;13.782;2023-07-30T08:14:45;1.20;;;0.70;;
79149;SDS011;68563;45.644;13.782;2023-07-30T08:17:10;1.75;;;0.70;;
79149;SDS011;68563;45.644;13.782;2023-07-30T08:19:36;0.70;;;0.60;;
79149;SDS011;68563;45.644;13.782;2023-07-30T08:22:01;1.75;;;0.73;;
79149;SDS011;68563;45.644;13.782;2023-07-30T08:24:26;1.13;;;0.80;;
79149;SDS011;68563;45.644;13.782;2023-07-30T08:26:52;1.17;;;0.70;;
79149;SDS011;68563;45.644;13.782;2023-07-30T08:29:17;8.10;;;3.70;;
79149;SDS011;68563;45.644;13.782;2023-07-30T08:31:42;3.00;;;2.50;;
79149;SDS011;68563;45.644;13.782;2023-07-30T08:34:08;4.03;;;1.90;;
79149;SDS011;68563;45.644;13.782;2023-07-30T08:36:33;2.83;;;1.88;;
79149;SDS011;68563;45.644;13.782;2023-07-30T08:38:58;3.70;;;1.48;;
79149;SDS011;68563;45.644;13.782;2023-07-30T08:41:24;1.83;;;1.63;;
79149;SDS011;68563;45.644;13.782;2023-07-30T08:43:49;2.30;;;1.80;;
79149;SDS011;68563;45.644;13.782;2023-07-30T08:46:17;1.73;;;1.45;;
79149;SDS011;68563;45.644;13.782;2023-07-30T08:48:42;1.45;;;1.13;;
79149;SDS011;68563;45.644;13.782;2023-07-30T08:51:07;1.55;;;1.13;;
79149;SDS011;68563;45.644;13.782;2023-07-30T08:53:33;2.15;;;1.50;;
79149;SDS011;68563;45.644;13.782;2023-07-30T08:55:59;2.75;;;1.30;;
79149;SDS011;68563;45.644;13.782;2023-07-30T08:58:26;1.80;;;1.23;;
79149;SDS011;68563;45.644;13.782;2023-07-30T09:00:53;1.75;;;1.20;;
79149;SDS011;68563;45.644;13.782;2023-07-30T09:03:21;2.97;;;1.20;;
79149;SDS011;68563;45.644;13.782;2023-07-30T09:05:49;2.65;;;1.23;;
79149;SDS011;68563;45.644;13.782;2023-07-30T09:08:15;2.65;;;1.20;;
79149;SDS011;68563;45.644;13.782;2023-07-30T09:10:42;2.33;;;0.98;;
79149;SDS011;68563;45.644;13.782;2023-07-30T09:13:08;1.98;;;1.15;;
79149;SDS011;68563;45.644;13.782;2023-07-30T09:15:37;1.77;;;1.40;;
79149;SDS011;68563;45.644;13.782;2023-07-30T09:18:05;1.83;;;1.30;;
79149;SDS011;68563;45.644;13.782;2023-07-30T09:20:41;2.10;;;1.40;;
79149;SDS011;68563;45.644;13.782;2023-07-30T09:23:08;2.33;;;1.55;;
79149;SDS011;68563;45.644;13.782;2023-07-30T09:25:35;5.50;;;1.90;;
79149;SDS011;68563;45.644;13.782;2023-07-30T09:28:01;1.92;;;1.60;;
79149;SDS011;68563;45.644;13.782;2023-07-30T09:30:26;3.50;;;1.30;;
79149;SDS011;68563;45.644;13.782;2023-07-30T09:32:53;1.90;;;1.45;;
79149;SDS011;68563;45.644;13.782;2023-07-30T09:35:23;1.63;;;1.40;;
79149;SDS011;68563;45.644;13.782;2023-07-30T09:37:50;1.27;;;1.17;;
79149;SDS011;68563;45.644;13.782;2023-07-30T09:40:30;1.35;;;1.20;;
79149;SDS011;68563;45.644;13.782;2023-07-30T09:42:56;2.25;;;1.27;;
79149;SDS011;68563;45.644;13.782;2023-07-30T09:45:23;1.30;;;1.15;;
79149;SDS011;68563;45.644;13.782;2023-07-30T09:47:50;1.98;;;1.33;;
79149;SDS011;68563;45.644;13.782;2023-07-30T09:50:16;4.65;;;2.28;;
79149;SDS011;68563;45.644;13.782;2023-07-30T09:52:42;2.10;;;1.90;;
79149;SDS011;68563;45.644;13.782;2023-07-30T09:55:08;1.92;;;1.55;;
79149;SDS011;68563;45.644;13.782;2023-07-30T09:57:34;1.67;;;1.58;;
79149;SDS011;68563;45.644;13.782;2023-07-30T10:00:01;2.08;;;1.50;;
79149;SDS011;68563;45.644;13.782;2023-07-30T10:02:28;2.30;;;1.40;;
79149;SDS011;68563;45.644;13.782;2023-07-30T10:07:25;1.77;;;1.30;;
79149;SDS011;68563;45.644;13.782;2023-07-30T10:09:51;2.55;;;1.20;;
79149;SDS011;68563;45.644;13.782;2023-07-30T10:12:23;2.25;;;1.20;;
79149;SDS011;68563;45.644;13.782;2023-07-30T10:14:52;1.20;;;0.90;;
79149;SDS011;68563;45.644;13.782;2023-07-30T10:17:17;3.33;;;0.88;;
79149;SDS011;68563;45.644;13.782;2023-07-30T10:19:46;2.17;;;1.30;;
79149;SDS011;68563;45.644;13.782;2023-07-30T10:25:02;1.33;;;0.98;;
79149;SDS011;68563;45.644;13.782;2023-07-30T10:27:38;3.58;;;1.30;;
79149;SDS011;68563;45.644;13.782;2023-07-30T10:38:47;1.90;;;1.20;;
79149;SDS011;68563;45.644;13.782;2023-07-30T10:41:15;1.23;;;1.00;;
79149;SDS011;68563;45.644;13.782;2023-07-30T10:43:43;1.15;;;1.05;;
79149;SDS011;68563;45.644;13.782;2023-07-30T10:46:13;2.60;;;1.30;;
79149;SDS011;68563;45.644;13.782;2023-07-30T10:48:41;1.73;;;1.23;;
79149;SDS011;68563;45.644;13.782;2023-07-30T10:51:11;1.40;;;1.27;;
79149;SDS011;68563;45.644;13.782;2023-07-30T10:53:38;1.38;;;1.27;;
79149;SDS011;68563;45.644;13.782;2023-07-30T10:56:04;2.72;;;1.80;;
79149;SDS011;68563;45.644;13.782;2023-07-30T10:58:31;3.42;;;1.60;;
79149;SDS011;68563;45.644;13.782;2023-07-30T11:01:03;1.50;;;1.40;;
79149;SDS011;68563;45.644;13.782;2023-07-30T11:03:32;1.70;;;1.50;;
79149;SDS011;68563;45.644;13.782;2023-07-30T11:05:58;3.25;;;1.50;;
79149;SDS011;68563;45.644;13.782;2023-07-30T11:08:33;2.08;;;1.30;;
79149;SDS011;68563;45.644;13.782;2023-07-30T11:11:01;1.63;;;1.30;;
79149;SDS011;68563;45.644;13.782;2023-07-30T11:13:26;1.75;;;1.30;;
79149;SDS011;68563;45.644;13.782;2023-07-30T11:15:52;3.20;;;1.52;;
79149;SDS011;68563;45.644;13.782;2023-07-30T11:18:18;2.25;;;1.25;;
79149;SDS011;68563;45.644;13.782;2023-07-30T11:20:43;2.03;;;1.30;;
79149;SDS011;68563;45.644;13.782;2023-07-30T11:23:21;2.47;;;1.67;;
79149;SDS011;68563;45.644;13.782;2023-07-30T11:25:48;1.23;;;1.13;;
79149;SDS011;68563;45.644;13.782;2023-07-30T11:28:15;1.60;;;1.15;;
79149;SDS011;68563;45.644;13.782;2023-07-30T11:31:00;1.58;;;1.20;;
79149;SDS011;68563;45.644;13.782;2023-07-30T11:33:40;2.40;;;1.27;;
79149;SDS011;68563;45.644;13.782;2023-07-30T11:36:07;2.22;;;1.75;;
79149;SDS011;68563;45.644;13.782;2023-07-30T11:38:35;1.70;;;1.33;;
79149;SDS011;68563;45.644;13.782;2023-07-30T11:41:02;1.92;;;1.35;;
79149;SDS011;68563;45.644;13.782;2023-07-30T11:43:27;2.15;;;1.88;;
79149;SDS011;68563;45.644;13.782;2023-07-30T11:46:15;1.75;;;1.40;;
79149;SDS011;68563;45.644;13.782;2023-07-30T11:48:44;1.88;;;1.40;;
79149;SDS011;68563;45.644;13.782;2023-07-30T11:51:27;2.38;;;1.40;;
79149;SDS011;68563;45.644;13.782;2023-07-30T11:53:54;1.90;;;1.45;;
79149;SDS011;68563;45.644;13.782;2023-07-30T11:58:58;1.83;;;1.55;;
79149;SDS011;68563;45.644;13.782;2023-07-30T12:01:30;2.05;;;1.40;;
79149;SDS011;68563;45.644;13.782;2023-07-30T12:03:59;1.70;;;1.50;;
79149;SDS011;68563;45.644;13.782;2023-07-30T12:06:41;1.20;;;1.10;;
79149;SDS011;68563;45.644;13.782;2023-07-30T12:09:10;1.20;;;1.10;;
79149;SDS011;68563;45.644;13.782;2023-07-30T12:11:43;2.25;;;1.60;;
79149;SDS011;68563;45.644;13.782;2023-07-30T12:14:15;2.38;;;1.40;;
79149;SDS011;68563;45.644;13.782;2023-07-30T12:16:41;3.30;;;1.50;;
79149;SDS011;68563;45.644;13.782;2023-07-30T12:19:06;2.45;;;1.50;;
79149;SDS011;68563;45.644;13.782;2023-07-30T12:21:32;1.85;;;1.20;;
79149;SDS011;68563;45.644;13.782;2023-07-30T12:23:57;1.25;;;1.13;;
79149;SDS011;68563;45.644;13.782;2023-07-30T12:26:23;1.90;;;1.20;;
79149;SDS011;68563;45.644;13.782;2023-07-30T12:28:48;2.08;;;1.10;;
79149;SDS011;68563;45.644;13.782;2023-07-30T12:31:14;2.30;;;1.40;;
79149;SDS011;68563;45.644;13.782;2023-07-30T12:33:39;3.00;;;1.45;;
79149;SDS011;68563;45.644;13.782;2023-07-30T12:36:05;1.85;;;0.90;;
79149;SDS011;68563;45.644;13.782;2023-07-30T12:38:30;1.50;;;1.20;;
79149;SDS011;68563;45.644;13.782;2023-07-30T12:40:55;1.40;;;1.15;;
79149;SDS011;68563;45.644;13.782;2023-07-30T12:43:21;2.00;;;1.00;;
79149;SDS011;68563;45.644;13.782;2023-07-30T12:45:47;2.28;;;1.20;;
79149;SDS011;68563;45.644;13.782;2023-07-30T12:48:12;2.33;;;1.30;;
79149;SDS011;68563;45.644;13.782;2023-07-30T12:50:38;1.92;;;1.45;;
79149;SDS011;68563;45.644;13.782;2023-07-30T12:53:04;3.22;;;1.50;;
79149;SDS011;68563;45.644;13.782;2023-07-30T12:55:29;1.08;;;0.90;;
79149;SDS011;68563;45.644;13.782;2023-07-30T12:57:55;1.80;;;1.25;;
79149;SDS011;68563;45.644;13.782;2023-07-30T13:00:20;1.27;;;1.00;;
79149;SDS011;68563;45.644;13.782;2023-07-30T13:02:45;1.23;;;1.13;;
79149;SDS011;68563;45.644;13.782;2023-07-30T13:05:11;1.83;;;1.30;;
79149;SDS011;68563;45.644;13.782;2023-07-30T13:07:38;1.90;;;1.40;;
79149;SDS011;68563;45.644;13.782;2023-07-30T13:10:07;2.72;;;1.15;;
79149;SDS011;68563;45.644;13.782;2023-07-30T13:12:33;1.85;;;1.23;;
79149;SDS011;68563;45.644;13.782;2023-07-30T13:15:00;1.98;;;1.50;;
79149;SDS011;68563;45.644;13.782;2023-07-30T13:17:26;3.08;;;1.40;;
79149;SDS011;68563;45.644;13.782;2023-07-30T13:19:51;1.23;;;1.13;;
79149;SDS011;68563;45.644;13.782;2023-07-30T13:22:17;1.48;;;1.10;;
79149;SDS011;68563;45.644;13.782;2023-07-30T13:24:42;2.03;;;1.23;;
79149;SDS011;68563;45.644;13.782;2023-07-30T13:27:08;2.45;;;1.20;;
79149;SDS011;68563;45.644;13.782;2023-07-30T13:29:33;1.48;;;1.27;;
79149;SDS011;68563;45.644;13.782;2023-07-30T13:31:59;4.93;;;1.77;;
79149;SDS011;68563;45.644;13.782;2023-07-30T13:34:24;1.60;;;1.50;;
79149;SDS011;68563;45.644;13.782;2023-07-30T13:36:49;1.98;;;1.33;;
79149;SDS011;68563;45.644;13.782;2023-07-30T13:39:15;1.80;;;1.20;;
79149;SDS011;68563;45.644;13.782;2023-07-30T13:41:40;2.20;;;1.42;;
79149;SDS011;68563;45.644;13.782;2023-07-30T13:44:06;2.38;;;1.30;;
79149;SDS011;68563;45.644;13.782;2023-07-30T13:46:31;1.38;;;1.10;;
79149;SDS011;68563;45.644;13.782;2023-07-30T13:48:57;2.42;;;1.42;;
79149;SDS011;68563;45.644;13.782;2023-07-30T13:51:22;1.42;;;1.27;;
79149;SDS011;68563;45.644;13.782;2023-07-30T13:53:47;1.15;;;1.00;;
79149;SDS011;68563;45.644;13.782;2023-07-30T13:56:13;1.85;;;1.20;;
79149;SDS011;68563;45.644;13.782;2023-07-30T13:58:39;1.05;;;0.95;;
79149;SDS011;68563;45.644;13.782;2023-07-30T14:01:04;1.48;;;1.38;;
79149;SDS011;68563;45.644;13.782;2023-07-30T14:03:31;1.10;;;1.00;;
79149;SDS011;68563;45.644;13.782;2023-07-30T14:05:56;3.53;;;1.00;;
79149;SDS011;68563;45.644;13.782;2023-07-30T14:08:22;1.35;;;1.10;;
79149;SDS011;68563;45.644;13.782;2023-07-30T14:10:48;1.48;;;1.20;;
79149;SDS011;68563;45.644;13.782;2023-07-30T14:13:13;1.17;;;0.82;;
79149;SDS011;68563;45.644;13.782;2023-07-30T14:15:38;1.00;;;0.90;;
79149;SDS011;68563;45.644;13.782;2023-07-30T14:18:05;0.82;;;0.80;;
79149;SDS011;68563;45.644;13.782;2023-07-30T14:20:30;1.00;;;0.82;;
79149;SDS011;68563;45.644;13.782;2023-07-30T14:22:56;1.98;;;0.90;;
79149;SDS011;68563;45.644;13.782;2023-07-30T14:25:23;0.82;;;0.73;;
79149;SDS011;68563;45.644;13.782;2023-07-30T14:27:49;0.80;;;0.75;;
79149;SDS011;68563;45.644;13.782;2023-07-30T14:30:14;1.60;;;1.05;;
79149;SDS011;68563;45.644;13.782;2023-07-30T14:32:41;0.90;;;0.82;;
79149;SDS011;68563;45.644;13.782;2023-07-30T14:35:06;2.88;;;0.90;;
79149;SDS011;68563;45.644;13.782;2023-07-30T14:37:32;1.00;;;0.80;;
79149;SDS011;68563;45.644;13.782;2023-07-30T14:39:58;1.25;;;0.82;;
79149;SDS011;68563;45.644;13.782;2023-07-30T14:42:23;0.70;;;0.70;;
79149;SDS011;68563;45.644;13.782;2023-07-30T14:44:48;1.65;;;0.85;;